createdAt,value
2022-12-24T00:01:22.596Z,32.70
2022-12-24T00:03:50.469Z,59.77
2022-12-24T00:06:21.009Z,46.57
2022-12-24T00:08:48.863Z,38.70
2022-12-24T00:11:18.340Z,35.27
2022-12-24T00:13:46.015Z,32.13
2022-12-24T00:16:13.679Z,33.13
2022-12-24T00:18:45.977Z,32.93
2022-12-24T00:21:14.656Z,33.63
2022-12-24T00:23:42.868Z,35.23
2022-12-24T00:26:10.543Z,33.27
2022-12-24T00:28:39.612Z,32.27
2022-12-24T00:31:12.283Z,34.57
2022-12-24T00:33:40.135Z,32.80
2022-12-24T00:36:09.481Z,32.50
2022-12-24T00:38:37.284Z,32.20
2022-12-24T00:41:24.329Z,32.83
2022-12-24T00:43:55.770Z,31.57
2022-12-24T00:46:24.286Z,32.90
2022-12-24T00:48:52.011Z,32.10
2022-12-24T00:51:20.616Z,32.93
2022-12-24T00:53:48.369Z,34.40
2022-12-24T00:56:16.240Z,33.30
2022-12-24T00:58:43.795Z,32.80
2022-12-24T01:01:13.337Z,33.27
2022-12-24T01:03:41.306Z,32.80
2022-12-24T01:06:10.669Z,36.03
2022-12-24T01:08:38.477Z,33.10
2022-12-24T01:11:07.336Z,34.57
2022-12-24T01:13:35.261Z,33.60
2022-12-24T01:16:03.337Z,34.90
2022-12-24T01:18:32.272Z,34.70
2022-12-24T01:21:01.498Z,34.63
2022-12-24T01:23:29.951Z,34.17
2022-12-24T01:26:01.429Z,34.93
2022-12-24T01:28:29.460Z,35.67
2022-12-24T01:30:57.096Z,34.97
2022-12-24T01:33:24.769Z,34.90
2022-12-24T01:35:53.692Z,36.20
2022-12-24T01:38:21.239Z,38.00
2022-12-24T01:41:02.715Z,35.60
2022-12-24T01:43:32.738Z,36.43
2022-12-24T01:46:02.913Z,35.10
2022-12-24T01:48:36.805Z,34.60
2022-12-24T01:51:15.403Z,36.20
2022-12-24T01:53:46.187Z,35.80
2022-12-24T01:56:14.270Z,36.60
2022-12-24T01:58:47.172Z,36.20
2022-12-24T02:01:14.865Z,36.30
2022-12-24T02:03:42.640Z,36.10
2022-12-24T02:06:16.459Z,37.20
2022-12-24T02:08:44.235Z,38.03
2022-12-24T02:11:13.995Z,37.53
2022-12-24T02:13:43.318Z,36.70
2022-12-24T02:16:22.319Z,37.90
2022-12-24T02:18:58.183Z,38.20
2022-12-24T02:21:41.615Z,36.73
2022-12-24T02:24:49.120Z,36.83
2022-12-24T02:27:26.991Z,35.90
2022-12-24T02:30:09.503Z,36.20
2022-12-24T02:32:46.434Z,36.90
2022-12-24T02:35:20.183Z,37.40
2022-12-24T02:37:53.822Z,37.10
2022-12-24T02:40:26.335Z,38.90
2022-12-24T02:42:58.768Z,39.53
2022-12-24T02:45:31.839Z,37.40
2022-12-24T02:48:01.163Z,39.03
2022-12-24T02:50:29.516Z,40.27
2022-12-24T02:52:57.163Z,37.10
2022-12-24T02:55:32.848Z,36.73
2022-12-24T02:58:17.799Z,39.57
2022-12-24T03:00:56.445Z,40.40
2022-12-24T03:03:35.590Z,37.77
2022-12-24T03:06:14.981Z,38.13
2022-12-24T03:08:49.634Z,38.17
2022-12-24T03:11:19.660Z,37.83
2022-12-24T03:13:48.945Z,38.63
2022-12-24T03:16:22.725Z,37.33
2022-12-24T03:18:52.029Z,40.47
2022-12-24T03:21:25.081Z,37.60
2022-12-24T03:23:52.847Z,37.40
2022-12-24T03:26:21.388Z,39.83
2022-12-24T03:28:49.969Z,39.37
2022-12-24T03:31:19.841Z,39.67
2022-12-24T03:33:48.622Z,38.33
2022-12-24T03:36:16.623Z,41.13
2022-12-24T03:38:44.245Z,38.17
2022-12-24T03:41:11.828Z,38.30
2022-12-24T03:43:39.404Z,38.50
2022-12-24T03:46:08.727Z,40.40
2022-12-24T03:48:37.666Z,38.80
2022-12-24T03:51:06.023Z,40.03
2022-12-24T03:53:33.595Z,39.10
2022-12-24T03:56:01.181Z,40.23
2022-12-24T03:58:28.779Z,39.23
2022-12-24T04:00:56.407Z,40.53
2022-12-24T04:03:24.039Z,38.37
2022-12-24T04:06:02.950Z,38.77
2022-12-24T04:08:30.491Z,40.73
2022-12-24T04:10:58.101Z,38.37
2022-12-24T04:13:26.031Z,37.97
2022-12-24T04:15:59.147Z,39.20
2022-12-24T04:18:26.776Z,41.43
2022-12-24T04:20:54.688Z,39.60
2022-12-24T04:23:23.722Z,39.70
2022-12-24T04:25:51.796Z,38.27
2022-12-24T04:28:19.714Z,38.30
2022-12-24T04:30:47.311Z,38.20
2022-12-24T04:33:14.850Z,39.20
2022-12-24T04:35:42.957Z,37.27
2022-12-24T04:38:11.207Z,37.73
2022-12-24T04:40:40.099Z,39.37
2022-12-24T04:43:07.688Z,38.67
2022-12-24T04:45:35.338Z,39.90
2022-12-24T04:48:02.933Z,39.73
2022-12-24T04:50:30.491Z,40.07
2022-12-24T04:52:58.080Z,40.73
2022-12-24T04:55:25.667Z,39.27
2022-12-24T04:57:54.537Z,38.47
2022-12-24T05:00:22.377Z,39.77
2022-12-24T05:02:50.100Z,39.50
2022-12-24T05:05:17.988Z,38.87
2022-12-24T05:07:45.577Z,39.03
2022-12-24T05:10:13.184Z,39.80
2022-12-24T05:12:40.767Z,40.23
2022-12-24T05:15:10.352Z,38.73
2022-12-24T05:17:37.938Z,40.37
2022-12-24T05:20:06.477Z,39.97
2022-12-24T05:22:51.719Z,38.47
2022-12-24T05:25:37.059Z,40.13
2022-12-24T05:28:04.775Z,38.90
2022-12-24T05:30:33.990Z,39.80
2022-12-24T05:33:01.565Z,39.80
2022-12-24T05:35:29.212Z,39.77
2022-12-24T05:37:59.089Z,41.30
2022-12-24T05:40:26.816Z,40.57
2022-12-24T05:42:54.409Z,40.10
2022-12-24T05:45:21.940Z,42.40
2022-12-24T05:47:50.851Z,40.57
2022-12-24T05:50:18.561Z,37.73
2022-12-24T05:52:46.119Z,39.77
2022-12-24T05:55:13.687Z,39.80
2022-12-24T05:57:41.717Z,38.93
2022-12-24T06:00:10.673Z,37.67
2022-12-24T06:02:38.467Z,38.83
2022-12-24T06:05:07.836Z,38.67
2022-12-24T06:07:35.901Z,38.47
2022-12-24T06:10:03.662Z,37.40
2022-12-24T06:12:31.256Z,40.00
2022-12-24T06:14:58.792Z,38.50
2022-12-24T06:17:26.425Z,37.57
2022-12-24T06:19:54.011Z,39.83
2022-12-24T06:22:22.926Z,38.60
2022-12-24T06:24:50.539Z,39.00
2022-12-24T06:27:18.131Z,38.80
2022-12-24T06:29:46.256Z,37.67
2022-12-24T06:32:13.976Z,37.53
2022-12-24T06:34:41.540Z,37.30
2022-12-24T06:37:16.342Z,36.17
2022-12-24T06:39:45.931Z,36.93
2022-12-24T06:42:13.531Z,39.27
2022-12-24T06:44:41.214Z,36.80
2022-12-24T06:47:08.839Z,37.90
2022-12-24T06:49:36.447Z,37.77
2022-12-24T06:52:04.130Z,36.77
2022-12-24T06:54:31.762Z,37.17
2022-12-24T06:57:00.724Z,39.13
2022-12-24T06:59:28.295Z,39.20
2022-12-24T07:01:55.998Z,38.37
2022-12-24T07:04:23.743Z,38.47
2022-12-24T07:06:51.334Z,37.53
2022-12-24T07:09:19.240Z,37.40
2022-12-24T07:11:46.816Z,39.73
2022-12-24T07:14:15.731Z,37.27
2022-12-24T07:16:43.472Z,38.07
2022-12-24T07:19:11.266Z,36.87
2022-12-24T07:21:38.925Z,38.47
2022-12-24T07:24:07.058Z,39.00
2022-12-24T07:26:34.671Z,38.00
2022-12-24T07:29:02.446Z,37.10
2022-12-24T07:31:31.499Z,41.00
2022-12-24T07:33:59.179Z,38.60
2022-12-24T07:36:28.216Z,39.53
2022-12-24T07:38:56.745Z,38.23
2022-12-24T07:41:24.309Z,38.60
2022-12-24T07:43:51.906Z,39.97
2022-12-24T07:46:19.579Z,36.87
2022-12-24T07:48:48.604Z,36.90
2022-12-24T07:51:16.272Z,37.30
2022-12-24T07:53:47.677Z,37.73
2022-12-24T07:56:16.206Z,38.73
2022-12-24T07:58:44.107Z,38.47
2022-12-24T08:01:12.153Z,36.97
2022-12-24T08:03:40.053Z,38.13
2022-12-24T08:06:09.747Z,36.33
2022-12-24T08:08:37.691Z,37.10
2022-12-24T08:11:07.922Z,36.50
2022-12-24T08:13:35.793Z,36.63
2022-12-24T08:16:03.467Z,36.20
2022-12-24T08:18:31.205Z,35.90
2022-12-24T08:20:58.887Z,36.10
2022-12-24T08:23:27.857Z,35.90
2022-12-24T08:25:55.521Z,36.53
2022-12-24T08:28:23.157Z,37.07
2022-12-24T08:30:51.959Z,36.00
2022-12-24T08:33:20.327Z,36.33
2022-12-24T08:35:49.929Z,36.13
2022-12-24T08:38:18.275Z,37.17
2022-12-24T08:40:49.892Z,36.20
2022-12-24T08:43:18.434Z,37.67
2022-12-24T08:45:46.528Z,36.23
2022-12-24T08:48:14.230Z,34.47
2022-12-24T08:50:42.852Z,36.97
2022-12-24T08:53:11.249Z,37.33
2022-12-24T08:55:39.552Z,35.67
2022-12-24T08:58:08.579Z,36.90
2022-12-24T09:00:36.275Z,35.63
2022-12-24T09:03:04.056Z,37.90
2022-12-24T09:05:31.740Z,37.10
2022-12-24T09:07:59.531Z,37.03
2022-12-24T09:10:27.466Z,36.80
2022-12-24T09:12:54.998Z,35.83
2022-12-24T09:15:23.908Z,35.73
2022-12-24T09:17:51.544Z,35.80
2022-12-24T09:20:19.395Z,35.73
2022-12-24T09:22:47.054Z,36.77
2022-12-24T09:25:14.825Z,35.50
2022-12-24T09:27:42.526Z,36.03
2022-12-24T09:30:11.442Z,36.97
2022-12-24T09:32:40.654Z,36.73
2022-12-24T09:35:08.830Z,36.37
2022-12-24T09:37:36.914Z,37.47
2022-12-24T09:40:05.118Z,37.30
2022-12-24T09:42:44.519Z,39.57
2022-12-24T09:45:20.705Z,36.53
2022-12-24T09:47:53.851Z,38.90
2022-12-24T09:50:34.910Z,36.67
2022-12-24T09:53:06.184Z,38.30
2022-12-24T09:55:38.157Z,37.40
2022-12-24T09:58:11.651Z,36.97
2022-12-24T10:00:43.182Z,37.87
2022-12-24T10:03:17.464Z,35.70
2022-12-24T10:05:51.003Z,36.40
2022-12-24T10:08:28.336Z,37.03
2022-12-24T10:11:00.539Z,35.50
2022-12-24T10:13:41.496Z,37.33
2022-12-24T10:16:19.089Z,35.17
2022-12-24T10:18:57.003Z,38.13
2022-12-24T10:21:33.606Z,38.47
2022-12-24T10:24:07.997Z,35.73
2022-12-24T10:26:45.120Z,34.97
2022-12-24T10:29:19.054Z,35.23
2022-12-24T10:31:54.571Z,35.03
2022-12-24T10:34:25.650Z,34.10
2022-12-24T10:36:53.467Z,33.57
2022-12-24T10:39:24.200Z,34.70
2022-12-24T10:41:55.199Z,35.13
2022-12-24T10:44:26.016Z,34.03
2022-12-24T10:46:53.612Z,35.40
2022-12-24T10:49:29.267Z,36.10
2022-12-24T10:52:01.350Z,35.30
2022-12-24T10:54:34.345Z,35.53
2022-12-24T10:57:03.375Z,34.57
2022-12-24T10:59:33.285Z,33.30
2022-12-24T11:02:02.355Z,33.57
2022-12-24T11:04:33.401Z,33.40
2022-12-24T11:07:03.143Z,33.47
2022-12-24T11:09:33.328Z,33.43
2022-12-24T11:12:09.032Z,33.33
2022-12-24T11:14:39.765Z,33.50
2022-12-24T11:17:07.547Z,34.13
2022-12-24T11:19:40.078Z,33.00
2022-12-24T11:22:18.917Z,36.43
2022-12-24T11:24:50.305Z,37.00
2022-12-24T11:27:44.194Z,39.03
2022-12-24T11:30:20.440Z,33.73
2022-12-24T11:32:49.568Z,34.30
2022-12-24T11:35:21.644Z,33.20
2022-12-24T11:37:49.708Z,35.43
2022-12-24T11:40:22.565Z,33.77
2022-12-24T11:42:53.181Z,33.80
2022-12-24T11:45:25.864Z,35.43
2022-12-24T11:47:54.655Z,33.30
2022-12-24T11:50:27.222Z,33.10
2022-12-24T11:53:03.603Z,32.80
2022-12-24T11:55:41.070Z,33.50
2022-12-24T11:58:20.658Z,31.30
2022-12-24T12:00:51.344Z,33.30
2022-12-24T12:03:28.807Z,33.43
2022-12-24T12:06:01.581Z,32.90
2022-12-24T12:08:31.241Z,33.40
2022-12-24T12:11:00.029Z,32.43
2022-12-24T12:13:33.341Z,34.27
2022-12-24T12:16:17.641Z,32.40
2022-12-24T12:18:52.162Z,33.00
2022-12-24T12:21:25.782Z,34.03
2022-12-24T12:23:58.561Z,33.97
2022-12-24T12:26:28.765Z,30.67
2022-12-24T12:29:00.134Z,33.30
2022-12-24T12:31:34.368Z,31.13
2022-12-24T12:34:07.215Z,32.30
2022-12-24T12:36:43.357Z,33.63
2022-12-24T12:39:12.287Z,37.60
2022-12-24T12:41:51.682Z,33.00
2022-12-24T12:44:42.369Z,31.20
2022-12-24T12:47:32.348Z,32.23
2022-12-24T12:50:10.256Z,34.53
2022-12-24T12:52:55.168Z,33.40
2022-12-24T12:55:37.943Z,35.73
2022-12-24T12:58:11.328Z,38.70
2022-12-24T13:00:45.238Z,32.43
2022-12-24T13:03:41.616Z,33.10
2022-12-24T13:06:25.583Z,32.43
2022-12-24T13:09:13.643Z,35.10
2022-12-24T13:11:53.328Z,33.77
2022-12-24T13:14:41.519Z,34.10
2022-12-24T13:17:34.304Z,33.70
2022-12-24T13:20:25.626Z,32.90
2022-12-24T13:22:59.095Z,33.57
2022-12-24T13:25:38.510Z,32.20
2022-12-24T13:28:37.119Z,33.27
2022-12-24T13:31:29.921Z,32.60
2022-12-24T13:34:19.607Z,41.63
2022-12-24T13:37:20.874Z,37.80
2022-12-24T13:40:16.596Z,44.20
2022-12-24T13:42:53.061Z,47.70
2022-12-24T13:45:44.541Z,51.50
2022-12-24T13:48:26.851Z,40.73
2022-12-24T13:50:56.955Z,39.97
2022-12-24T13:53:29.809Z,37.83
2022-12-24T13:56:00.456Z,38.07
2022-12-24T13:58:29.664Z,36.53
2022-12-24T14:01:00.224Z,38.90
2022-12-24T14:03:33.495Z,39.67
2022-12-24T14:06:06.353Z,37.70
2022-12-24T14:08:39.829Z,38.50
2022-12-24T14:11:11.476Z,37.60
2022-12-24T14:14:12.690Z,37.50
2022-12-24T14:16:47.579Z,37.33
2022-12-24T14:19:17.916Z,38.03
2022-12-24T14:21:53.984Z,40.37
2022-12-24T14:24:26.269Z,37.57
2022-12-24T14:26:57.948Z,38.77
2022-12-24T14:29:31.074Z,41.83
2022-12-24T14:32:04.023Z,41.47
2022-12-24T14:34:31.924Z,40.53
2022-12-24T14:37:04.508Z,42.27
2022-12-24T14:39:35.116Z,43.30
2022-12-24T14:42:11.619Z,40.50
2022-12-24T14:44:47.260Z,39.73
2022-12-24T14:47:26.712Z,42.60
2022-12-24T14:50:05.875Z,39.07
2022-12-24T14:53:05.629Z,41.30
2022-12-24T14:55:31.287Z,42.40
2022-12-24T14:58:25.231Z,44.00
2022-12-24T15:00:57.213Z,45.97
2022-12-24T15:03:27.075Z,48.60
2022-12-24T15:05:57.595Z,47.17
2022-12-24T15:08:30.531Z,43.77
2022-12-24T15:11:02.645Z,45.60
2022-12-24T15:13:36.658Z,48.70
2022-12-24T15:16:09.034Z,48.80
2022-12-24T15:18:39.246Z,41.47
2022-12-24T15:21:15.555Z,44.60
2022-12-24T15:23:48.440Z,52.60
2022-12-24T15:26:21.930Z,44.30
2022-12-24T15:28:49.925Z,44.73
2022-12-24T15:31:21.171Z,42.73
2022-12-24T15:33:50.400Z,45.53
2022-12-24T15:36:25.038Z,45.30
2022-12-24T15:38:55.224Z,45.47
2022-12-24T15:41:25.115Z,46.30
2022-12-24T15:43:55.524Z,44.53
2022-12-24T15:46:27.238Z,45.53
2022-12-24T15:48:57.021Z,43.23
2022-12-24T15:51:27.493Z,43.90
2022-12-24T15:54:01.575Z,46.30
2022-12-24T15:56:33.204Z,47.87
2022-12-24T15:59:31.094Z,45.83
2022-12-24T16:02:27.332Z,42.03
2022-12-24T16:04:55.140Z,41.00
2022-12-24T16:07:47.122Z,46.57
2022-12-24T16:10:25.150Z,41.30
2022-12-24T16:12:53.131Z,43.07
2022-12-24T16:15:21.308Z,40.47
2022-12-24T16:17:52.983Z,43.53
2022-12-24T16:20:23.077Z,43.83
2022-12-24T16:22:51.480Z,40.37
2022-12-24T16:25:27.240Z,38.77
2022-12-24T16:27:59.806Z,39.73
2022-12-24T16:30:27.902Z,42.33
2022-12-24T16:32:56.956Z,41.50
2022-12-24T16:35:28.098Z,39.90
2022-12-24T16:37:56.160Z,43.20
2022-12-24T16:40:27.630Z,39.77
2022-12-24T16:43:14.556Z,40.50
2022-12-24T16:45:42.792Z,42.30
2022-12-24T16:48:20.592Z,39.87
2022-12-24T16:50:48.252Z,42.80
2022-12-24T16:53:17.804Z,44.03
2022-12-24T16:55:47.513Z,40.07
2022-12-24T16:58:17.191Z,40.60
2022-12-24T17:00:45.609Z,41.47
2022-12-24T17:03:15.120Z,40.47
2022-12-24T17:05:44.387Z,40.20
2022-12-24T17:08:13.161Z,41.50
2022-12-24T17:10:41.232Z,42.23
2022-12-24T17:13:08.839Z,41.70
2022-12-24T17:15:36.420Z,45.03
2022-12-24T17:18:04.234Z,41.87
2022-12-24T17:20:33.140Z,41.30
2022-12-24T17:23:01.490Z,41.90
2022-12-24T17:25:29.051Z,57.90
2022-12-24T17:27:56.590Z,42.97
2022-12-24T17:30:24.151Z,40.37
2022-12-24T17:32:52.079Z,42.70
2022-12-24T17:35:19.676Z,54.03
2022-12-24T17:37:48.603Z,41.60
2022-12-24T17:40:16.506Z,42.90
2022-12-24T17:42:44.105Z,48.13
2022-12-24T17:45:12.032Z,43.87
2022-12-24T17:47:39.600Z,45.87
2022-12-24T17:50:08.354Z,44.83
2022-12-24T17:52:35.928Z,48.83
2022-12-24T17:55:05.692Z,49.10
2022-12-24T17:57:33.291Z,54.33
2022-12-24T18:00:00.862Z,44.07
2022-12-24T18:02:28.666Z,52.23
2022-12-24T18:04:56.333Z,47.53
2022-12-24T18:07:23.932Z,59.67
2022-12-24T18:09:51.490Z,51.60
2022-12-24T18:12:20.472Z,46.33
2022-12-24T18:14:47.999Z,57.57
2022-12-24T18:17:15.571Z,56.10
2022-12-24T18:19:43.211Z,55.50
2022-12-24T18:22:10.796Z,69.90
2022-12-24T18:24:38.374Z,58.93
2022-12-24T18:27:05.982Z,58.17
2022-12-24T18:29:35.211Z,53.00
2022-12-24T18:32:02.769Z,63.23
2022-12-24T18:34:30.360Z,66.90
2022-12-24T18:36:58.245Z,76.10
2022-12-24T18:39:26.351Z,68.77
2022-12-24T18:41:53.889Z,58.67
2022-12-24T18:44:25.348Z,53.70
2022-12-24T18:46:54.790Z,63.47
2022-12-24T18:49:22.448Z,66.10
2022-12-24T18:51:50.027Z,64.13
2022-12-24T18:54:17.612Z,54.37
2022-12-24T18:56:45.181Z,63.60
2022-12-24T18:59:12.808Z,56.00
2022-12-24T19:01:40.582Z,50.03
2022-12-24T19:04:10.341Z,53.80
2022-12-24T19:06:38.200Z,48.43
2022-12-24T19:09:05.787Z,55.73
2022-12-24T19:11:34.895Z,59.47
2022-12-24T19:14:03.719Z,48.90
2022-12-24T19:16:34.000Z,68.00
2022-12-24T19:19:02.992Z,49.37
2022-12-24T19:21:32.075Z,53.70
2022-12-24T19:23:59.667Z,52.90
2022-12-24T19:26:27.848Z,51.27
2022-12-24T19:28:55.804Z,54.50
2022-12-24T19:31:25.656Z,52.83
2022-12-24T19:33:55.451Z,47.83
2022-12-24T19:36:25.303Z,58.23
2022-12-24T19:38:54.647Z,57.40
2022-12-24T19:41:24.569Z,46.80
2022-12-24T19:43:53.566Z,46.23
2022-12-24T19:46:23.136Z,39.33
2022-12-24T19:48:52.499Z,45.83
2022-12-24T19:51:20.967Z,44.37
2022-12-24T19:53:49.052Z,37.97
2022-12-24T19:56:19.512Z,42.83
2022-12-24T19:58:47.742Z,35.10
2022-12-24T20:01:17.853Z,42.10
2022-12-24T20:03:45.836Z,35.10
2022-12-24T20:06:14.400Z,36.83
2022-12-24T20:08:42.192Z,32.80
2022-12-24T20:11:13.875Z,35.63
2022-12-24T20:13:43.154Z,33.83
2022-12-24T20:16:14.361Z,34.53
2022-12-24T20:18:42.039Z,34.40
2022-12-24T20:21:12.583Z,43.73
2022-12-24T20:23:41.002Z,44.10
2022-12-24T20:26:11.675Z,40.10
2022-12-24T20:28:39.897Z,44.30
2022-12-24T20:31:16.578Z,48.97
2022-12-24T20:33:45.736Z,37.90
2022-12-24T20:36:15.831Z,38.60
2022-12-24T20:38:43.515Z,39.83
2022-12-24T20:41:12.239Z,45.23
2022-12-24T20:43:47.343Z,52.20
2022-12-24T20:46:18.870Z,38.47
2022-12-24T20:48:47.120Z,40.73
2022-12-24T20:51:23.406Z,53.53
2022-12-24T20:53:52.534Z,50.63
2022-12-24T20:56:20.363Z,42.53
2022-12-24T20:58:47.970Z,47.23
2022-12-24T21:01:19.945Z,40.23
2022-12-24T21:03:47.788Z,50.70
2022-12-24T21:06:17.620Z,42.10
2022-12-24T21:08:45.571Z,48.83
2022-12-24T21:11:27.193Z,51.57
2022-12-24T21:13:54.907Z,48.23
2022-12-24T21:16:23.840Z,65.23
2022-12-24T21:18:51.801Z,55.80
2022-12-24T21:21:19.469Z,42.60
2022-12-24T21:23:47.095Z,53.13
2022-12-24T21:26:14.722Z,46.13
2022-12-24T21:28:42.581Z,37.73
2022-12-24T21:31:11.152Z,46.03
2022-12-24T21:33:40.235Z,48.67
2022-12-24T21:36:08.479Z,51.10
2022-12-24T21:38:36.326Z,58.30
2022-12-24T21:41:06.218Z,52.27
2022-12-24T21:43:35.419Z,54.60
2022-12-24T21:46:07.512Z,47.60
2022-12-24T21:48:52.696Z,62.97
2022-12-24T21:51:21.738Z,38.23
2022-12-24T21:54:21.361Z,44.53
2022-12-24T21:57:06.214Z,51.43
2022-12-24T21:59:33.858Z,53.10
2022-12-24T22:02:01.940Z,61.20
2022-12-24T22:04:31.445Z,64.37
2022-12-24T22:07:17.929Z,80.13
2022-12-24T22:10:03.203Z,38.80
2022-12-24T22:12:32.689Z,52.47
2022-12-24T22:15:00.707Z,55.73
2022-12-24T22:17:28.582Z,40.77
2022-12-24T22:19:56.506Z,54.07
2022-12-24T22:22:25.469Z,43.27
2022-12-24T22:24:53.096Z,47.70
2022-12-24T22:27:20.735Z,51.00
2022-12-24T22:29:48.299Z,43.23
2022-12-24T22:32:16.226Z,55.17
2022-12-24T22:34:43.754Z,60.50
2022-12-24T22:37:11.398Z,62.13
2022-12-24T22:39:40.314Z,51.27
2022-12-24T22:42:07.918Z,64.33
2022-12-24T22:44:36.261Z,46.77
2022-12-24T22:47:03.832Z,41.77
2022-12-24T22:49:31.584Z,45.17
2022-12-24T22:51:59.227Z,49.17
2022-12-24T22:54:26.999Z,40.67
2022-12-24T22:56:55.944Z,40.30
2022-12-24T22:59:23.551Z,42.10
2022-12-24T23:01:52.522Z,38.27
2022-12-24T23:04:20.614Z,38.47
2022-12-24T23:06:48.559Z,36.67
2022-12-24T23:09:17.485Z,44.27
2022-12-24T23:11:45.905Z,37.57
2022-12-24T23:14:35.470Z,42.10
2022-12-24T23:17:03.140Z,42.00
2022-12-24T23:19:33.379Z,35.20
2022-12-24T23:22:01.691Z,43.70
2022-12-24T23:24:29.966Z,41.47
2022-12-24T23:26:58.441Z,46.43
2022-12-24T23:29:27.384Z,40.53
2022-12-24T23:31:55.094Z,40.37
2022-12-24T23:34:22.660Z,52.90
2022-12-24T23:36:50.198Z,48.30
2022-12-24T23:39:17.847Z,48.97
2022-12-24T23:41:45.778Z,38.20
2022-12-24T23:44:13.358Z,39.27
2022-12-24T23:46:42.399Z,44.80
2022-12-24T23:49:13.787Z,39.63
2022-12-24T23:51:41.386Z,45.27
2022-12-24T23:54:09.094Z,41.57
2022-12-24T23:56:36.837Z,39.10
2022-12-24T23:59:04.842Z,37.03
